createdAt,value
2023-05-03T10:26:14.927Z,20.91
2023-05-03T10:31:49.135Z,21.40
2023-05-03T10:36:53.829Z,21.66
2023-05-03T10:42:04.543Z,21.76
2023-05-03T10:47:19.117Z,22.13
2023-05-03T10:52:36.613Z,22.05
2023-05-03T10:57:41.918Z,21.40
2023-05-03T11:03:14.141Z,21.69
2023-05-03T11:08:18.855Z,22.04
2023-05-03T11:13:21.218Z,21.35
2023-05-03T11:18:27.359Z,22.22
2023-05-03T11:23:30.296Z,21.71
2023-05-03T11:28:32.857Z,21.66
2023-05-03T11:33:36.920Z,22.25
2023-05-03T11:38:40.486Z,21.95
2023-05-03T11:43:44.417Z,22.23
2023-05-03T11:48:49.418Z,21.89
2023-05-03T11:53:52.766Z,22.31
2023-05-03T11:58:57.894Z,21.84
2023-05-03T12:04:05.897Z,21.69
2023-05-03T12:09:18.411Z,21.80
2023-05-03T12:14:25.019Z,22.36
2023-05-03T12:19:32.907Z,21.86
2023-05-03T12:24:38.838Z,21.83
2023-05-03T12:29:42.050Z,21.71
2023-05-03T12:34:46.751Z,21.80
2023-05-03T12:39:58.460Z,21.94
2023-05-03T12:45:15.243Z,21.62
2023-05-03T12:50:19.040Z,20.79
2023-05-03T12:55:25.449Z,20.50
2023-05-03T13:00:35.592Z,20.61
2023-05-03T13:05:39.667Z,20.98
2023-05-03T13:10:43.371Z,20.36
2023-05-03T13:15:45.794Z,20.28
2023-05-03T13:20:49.538Z,20.20
2023-05-03T13:25:54.662Z,20.11
2023-05-03T13:30:57.605Z,20.10
2023-05-03T13:36:00.040Z,19.63
2023-05-03T13:41:08.926Z,20.04
2023-05-03T13:46:11.497Z,19.82
2023-05-03T13:51:14.568Z,19.41
2023-05-03T13:56:18.170Z,18.88
2023-05-03T14:01:20.696Z,18.88
2023-05-03T14:06:26.114Z,18.36
2023-05-03T14:11:29.051Z,18.56
2023-05-03T14:16:41.010Z,19.16
2023-05-03T14:21:45.636Z,18.77
2023-05-03T14:26:48.661Z,18.47
2023-05-03T14:31:51.004Z,18.30
2023-05-03T14:36:53.300Z,17.53
2023-05-03T14:41:56.517Z,16.51
2023-05-03T14:46:59.474Z,16.55
2023-05-03T14:52:02.057Z,16.36
2023-05-03T14:57:05.104Z,16.06
2023-05-03T15:02:07.508Z,15.49
2023-05-03T15:07:10.190Z,15.52
2023-05-03T15:12:12.462Z,15.68
2023-05-03T15:17:14.742Z,15.53
2023-05-03T15:22:17.748Z,15.53
2023-05-03T15:27:20.150Z,15.67
2023-05-03T15:32:22.565Z,15.60
2023-05-03T15:37:33.858Z,15.88
2023-05-03T15:42:37.115Z,15.68
2023-05-03T15:47:39.572Z,15.75
2023-05-03T15:52:42.640Z,15.73
2023-05-03T15:57:45.956Z,15.88
2023-05-03T16:02:48.307Z,16.08
2023-05-03T16:07:51.332Z,16.11
2023-05-03T16:12:53.695Z,16.09
2023-05-03T16:17:56.903Z,16.32
2023-05-03T16:22:59.228Z,16.45
2023-05-03T16:28:02.385Z,16.49
2023-05-03T16:33:05.231Z,16.49
2023-05-03T16:38:10.654Z,16.43
2023-05-03T16:43:12.912Z,16.60
2023-05-03T16:48:15.945Z,16.63
2023-05-03T16:53:18.308Z,16.48
2023-05-03T16:58:21.321Z,16.62
2023-05-03T17:03:23.658Z,16.75
2023-05-03T17:08:26.529Z,16.93
2023-05-03T17:13:28.838Z,16.82
2023-05-03T17:18:31.891Z,16.70
2023-05-03T17:23:36.582Z,16.96
2023-05-03T17:28:39.141Z,16.88
2023-05-03T17:33:41.331Z,16.60
2023-05-03T17:38:43.608Z,16.76
2023-05-03T17:43:45.969Z,16.51
2023-05-03T17:48:48.931Z,16.56
2023-05-03T17:53:55.487Z,16.71
2023-05-03T17:58:58.186Z,16.55
2023-05-03T18:04:01.241Z,16.43
2023-05-03T18:09:06.273Z,16.33
2023-05-03T18:14:09.498Z,16.33
2023-05-03T18:19:13.009Z,16.36
2023-05-03T18:24:16.524Z,16.13
2023-05-03T18:29:18.937Z,16.35
2023-05-03T18:34:21.382Z,16.37
2023-05-03T18:39:23.654Z,16.46
2023-05-03T18:44:26.782Z,16.25
2023-05-03T18:49:29.188Z,16.22
2023-05-03T18:54:32.529Z,16.28
2023-05-03T18:59:38.457Z,15.90
2023-05-03T19:04:45.344Z,16.07
2023-05-03T19:09:47.951Z,16.10
2023-05-03T19:14:50.422Z,16.14
2023-05-03T19:19:52.748Z,16.10
2023-05-03T19:24:55.170Z,15.96
2023-05-03T19:29:58.400Z,15.50
2023-05-03T19:35:00.581Z,16.03
2023-05-03T19:40:03.180Z,15.98
2023-05-03T19:45:06.294Z,15.73
2023-05-03T19:50:08.884Z,16.20
2023-05-03T19:55:11.954Z,15.93
2023-05-03T20:00:17.970Z,15.85
2023-05-03T20:05:20.422Z,15.98
2023-05-03T20:10:22.900Z,16.01
2023-05-03T20:15:25.052Z,16.02
2023-05-03T20:20:27.643Z,16.12
2023-05-03T20:25:29.810Z,16.37
2023-05-03T20:30:33.418Z,16.11
2023-05-03T20:35:38.225Z,16.18
2023-05-03T20:40:40.441Z,16.24
2023-05-03T20:45:42.678Z,16.26
2023-05-03T20:50:44.868Z,16.36
2023-05-03T20:55:47.101Z,16.39
2023-05-03T21:00:52.072Z,16.31
2023-05-03T21:05:54.381Z,16.26
2023-05-03T21:10:56.740Z,16.11
2023-05-03T21:15:59.043Z,15.83
2023-05-03T21:21:01.391Z,15.81
2023-05-03T21:26:04.181Z,16.26
2023-05-03T21:31:06.348Z,16.03
2023-05-03T21:36:08.758Z,15.83
2023-05-03T21:41:11.285Z,15.48
2023-05-03T21:46:13.584Z,15.52
2023-05-03T21:51:23.401Z,15.81
2023-05-03T21:56:25.394Z,15.35
2023-05-03T22:01:27.662Z,15.67
2023-05-03T22:06:31.420Z,15.54
2023-05-03T22:11:33.656Z,15.72
2023-05-03T22:16:42.308Z,15.72
2023-05-03T22:21:44.460Z,15.80
2023-05-03T22:26:46.872Z,15.73
2023-05-03T22:31:49.164Z,15.66
2023-05-03T22:36:51.620Z,15.68
2023-05-03T22:41:53.949Z,15.64
2023-05-03T22:46:56.253Z,15.67
2023-05-03T22:51:58.458Z,15.62
2023-05-03T22:57:00.798Z,15.65
2023-05-03T23:02:02.981Z,15.49
2023-05-03T23:07:05.451Z,15.62
2023-05-03T23:12:08.094Z,15.68
2023-05-03T23:17:11.139Z,15.56
2023-05-03T23:22:13.673Z,15.59
2023-05-03T23:27:16.150Z,15.58
2023-05-03T23:32:18.633Z,15.58
2023-05-03T23:37:21.552Z,15.64
2023-05-03T23:42:23.803Z,15.44
2023-05-03T23:47:26.378Z,15.16
2023-05-03T23:52:28.687Z,15.26
2023-05-03T23:57:30.871Z,15.48
